createdAt,value
2023-01-19T00:00:54.502Z,98781.19
2023-01-19T00:03:28.062Z,98788.30
2023-01-19T00:05:55.384Z,98797.98
2023-01-19T00:08:22.616Z,98806.58
2023-01-19T00:10:53.199Z,98806.71
2023-01-19T00:13:20.613Z,98807.18
2023-01-19T00:15:47.852Z,98809.81
2023-01-19T00:18:15.114Z,98808.44
2023-01-19T00:20:42.804Z,98813.82
2023-01-19T00:23:09.978Z,98819.17
2023-01-19T00:25:42.811Z,98820.29
2023-01-19T00:28:11.631Z,98826.65
2023-01-19T00:30:40.050Z,98826.98
2023-01-19T00:33:07.257Z,98825.88
2023-01-19T00:35:35.679Z,98830.27
2023-01-19T00:38:03.454Z,98831.91
2023-01-19T00:40:30.655Z,98841.41
2023-01-19T00:42:58.330Z,98849.79
2023-01-19T00:45:25.983Z,98856.33
2023-01-19T00:47:57.402Z,98858.91
2023-01-19T00:50:26.731Z,98859.14
2023-01-19T00:52:55.682Z,98862.39
2023-01-19T00:55:23.673Z,98862.95
2023-01-19T00:57:51.036Z,98871.17
2023-01-19T01:00:20.422Z,98879.20
2023-01-19T01:02:49.455Z,98882.96
2023-01-19T01:05:17.523Z,98890.38
2023-01-19T01:07:45.490Z,98903.02
2023-01-19T01:10:22.310Z,98906.23
2023-01-19T01:13:05.031Z,98910.34
2023-01-19T01:15:37.232Z,98914.57
2023-01-19T01:18:04.381Z,98914.30
2023-01-19T01:20:33.770Z,98917.63
2023-01-19T01:23:01.327Z,98921.47
2023-01-19T01:25:31.108Z,98920.58
2023-01-19T01:27:58.382Z,98927.11
2023-01-19T01:30:25.558Z,98922.30
2023-01-19T01:32:52.715Z,98922.90
2023-01-19T01:35:19.858Z,98927.09
2023-01-19T01:37:47.035Z,98924.38
2023-01-19T01:40:17.055Z,98936.30
2023-01-19T01:42:44.673Z,98938.50
2023-01-19T01:45:34.968Z,98945.67
2023-01-19T01:48:10.792Z,98952.70
2023-01-19T01:51:03.181Z,98954.42
2023-01-19T01:53:32.946Z,98956.99
2023-01-19T01:56:04.392Z,98954.11
2023-01-19T01:58:34.029Z,98953.89
2023-01-19T02:01:20.199Z,98953.45
2023-01-19T02:03:47.507Z,98953.91
2023-01-19T02:06:15.065Z,98956.17
2023-01-19T02:09:21.160Z,98956.94
2023-01-19T02:12:07.044Z,98955.20
2023-01-19T02:14:39.058Z,98960.25
2023-01-19T02:17:07.127Z,98963.16
2023-01-19T02:19:41.240Z,98960.77
2023-01-19T02:22:12.206Z,98958.30
2023-01-19T02:24:39.486Z,98953.95
2023-01-19T02:27:07.970Z,98955.70
2023-01-19T02:29:35.682Z,98954.77
2023-01-19T02:32:03.292Z,98951.57
2023-01-19T02:34:30.826Z,98949.75
2023-01-19T02:36:59.446Z,98954.74
2023-01-19T02:39:42.164Z,98955.11
2023-01-19T02:42:21.669Z,98954.55
2023-01-19T02:44:51.890Z,98952.23
2023-01-19T02:47:19.955Z,98947.30
2023-01-19T02:50:01.323Z,98941.95
2023-01-19T02:52:28.835Z,98945.96
2023-01-19T02:55:13.093Z,98942.71
2023-01-19T02:57:43.821Z,98944.20
2023-01-19T03:00:25.796Z,98943.33
2023-01-19T03:03:25.708Z,98942.04
2023-01-19T03:06:11.906Z,98939.95
2023-01-19T03:09:00.871Z,98938.05
2023-01-19T03:11:33.650Z,98931.48
2023-01-19T03:14:09.073Z,98931.95
2023-01-19T03:16:42.152Z,98923.36
2023-01-19T03:19:32.683Z,98923.36
2023-01-19T03:22:07.488Z,98921.20
2023-01-19T03:24:38.684Z,98913.25
2023-01-19T03:27:13.412Z,98912.52
2023-01-19T03:29:47.282Z,98911.50
2023-01-19T03:32:18.065Z,98910.90
2023-01-19T03:34:49.736Z,98909.34
2023-01-19T03:37:19.933Z,98906.54
2023-01-19T03:39:47.324Z,98904.77
2023-01-19T03:42:17.689Z,98906.95
2023-01-19T03:44:46.727Z,98909.59
2023-01-19T03:47:15.117Z,98909.02
2023-01-19T03:49:45.392Z,98911.70
2023-01-19T03:52:13.026Z,98914.86
2023-01-19T03:54:41.181Z,98919.48
2023-01-19T03:57:08.581Z,98920.16
2023-01-19T03:59:36.494Z,98920.84
2023-01-19T04:02:03.680Z,98925.70
2023-01-19T04:04:30.842Z,98931.55
2023-01-19T04:06:58.008Z,98934.85
2023-01-19T04:09:25.849Z,98931.46
2023-01-19T04:11:53.072Z,98928.19
2023-01-19T04:14:20.279Z,98925.80
2023-01-19T04:16:47.475Z,98926.83
2023-01-19T04:19:14.812Z,98929.80
2023-01-19T04:21:41.940Z,98929.04
2023-01-19T04:24:10.715Z,98932.16
2023-01-19T04:26:37.869Z,98931.96
2023-01-19T04:29:05.669Z,98935.68
2023-01-19T04:31:33.184Z,98940.18
2023-01-19T04:34:00.321Z,98945.04
2023-01-19T04:36:28.383Z,98946.92
2023-01-19T04:38:55.570Z,98945.30
2023-01-19T04:41:22.769Z,98950.20
2023-01-19T04:43:50.006Z,98954.99
2023-01-19T04:46:17.214Z,98960.00
2023-01-19T04:48:44.480Z,98962.84
2023-01-19T04:51:11.925Z,98971.16
2023-01-19T04:53:39.168Z,98971.67
2023-01-19T04:56:06.425Z,98975.41
2023-01-19T04:58:33.750Z,98978.92
2023-01-19T05:01:00.953Z,98985.63
2023-01-19T05:03:28.179Z,98988.41
2023-01-19T05:05:55.537Z,98988.64
2023-01-19T05:08:22.759Z,98999.44
2023-01-19T05:10:50.271Z,99005.85
2023-01-19T05:13:17.468Z,99011.88
2023-01-19T05:15:44.776Z,99009.82
2023-01-19T05:18:11.999Z,99012.05
2023-01-19T05:20:40.256Z,99013.71
2023-01-19T05:23:07.519Z,99018.21
2023-01-19T05:25:34.736Z,99019.73
2023-01-19T05:28:03.016Z,99024.73
2023-01-19T05:30:30.211Z,99030.47
2023-01-19T05:32:57.363Z,99031.27
2023-01-19T05:35:35.371Z,99035.91
2023-01-19T05:38:03.777Z,99036.33
2023-01-19T05:40:31.001Z,99040.79
2023-01-19T05:43:01.365Z,99043.73
2023-01-19T05:45:28.830Z,99052.38
2023-01-19T05:47:56.136Z,99059.59
2023-01-19T05:50:23.505Z,99062.98
2023-01-19T05:52:53.291Z,99072.65
2023-01-19T05:55:21.771Z,99077.98
2023-01-19T05:57:49.230Z,99078.01
2023-01-19T06:00:17.326Z,99084.48
2023-01-19T06:02:44.860Z,99090.36
2023-01-19T06:05:12.213Z,99090.45
2023-01-19T06:07:39.451Z,99092.50
2023-01-19T06:10:07.330Z,99097.52
2023-01-19T06:12:34.878Z,99105.17
2023-01-19T06:15:02.152Z,99105.15
2023-01-19T06:17:29.308Z,99110.61
2023-01-19T06:19:56.496Z,99113.17
2023-01-19T06:22:23.654Z,99117.33
2023-01-19T06:24:51.256Z,99127.96
2023-01-19T06:27:18.457Z,99134.35
2023-01-19T06:29:45.645Z,99133.67
2023-01-19T06:32:12.841Z,99139.30
2023-01-19T06:34:43.775Z,99140.58
2023-01-19T06:37:14.048Z,99142.65
2023-01-19T06:39:41.259Z,99144.59
2023-01-19T06:42:08.698Z,99145.21
2023-01-19T06:44:35.897Z,99147.67
2023-01-19T06:47:14.547Z,99150.24
2023-01-19T06:49:43.727Z,99151.56
2023-01-19T06:52:11.752Z,99150.98
2023-01-19T06:54:38.975Z,99152.45
2023-01-19T06:57:06.131Z,99163.23
2023-01-19T06:59:33.303Z,99167.21
2023-01-19T07:02:00.643Z,99173.36
2023-01-19T07:04:47.665Z,99185.04
2023-01-19T07:07:16.684Z,99180.19
2023-01-19T07:09:43.845Z,99184.50
2023-01-19T07:12:11.045Z,99186.98
2023-01-19T07:14:38.068Z,99187.39
2023-01-19T07:17:05.197Z,99183.39
2023-01-19T07:19:32.753Z,99184.77
2023-01-19T07:22:00.007Z,99179.19
2023-01-19T07:24:27.210Z,99189.88
2023-01-19T07:26:54.359Z,99199.86
2023-01-19T07:29:21.536Z,99195.78
2023-01-19T07:31:49.683Z,99186.33
2023-01-19T07:34:17.044Z,99185.95
2023-01-19T07:36:44.450Z,99188.17
2023-01-19T07:39:11.629Z,99198.23
2023-01-19T07:41:39.003Z,99200.95
2023-01-19T07:44:06.975Z,99188.79
2023-01-19T07:46:34.176Z,99189.44
2023-01-19T07:49:01.327Z,99195.83
2023-01-19T07:51:28.507Z,99201.55
2023-01-19T07:53:55.631Z,99197.67
2023-01-19T07:56:24.365Z,99207.57
2023-01-19T07:58:52.638Z,99213.36
2023-01-19T08:01:20.094Z,99211.39
2023-01-19T08:03:50.986Z,99206.76
2023-01-19T08:06:24.009Z,99207.64
2023-01-19T08:08:51.306Z,99205.48
2023-01-19T08:11:18.350Z,99205.69
2023-01-19T08:13:45.539Z,99203.78
2023-01-19T08:16:12.764Z,99204.92
2023-01-19T08:18:39.963Z,99213.28
2023-01-19T08:21:07.298Z,99213.73
2023-01-19T08:23:34.547Z,99218.99
2023-01-19T08:26:01.768Z,99219.38
2023-01-19T08:28:29.061Z,99217.84
2023-01-19T08:30:56.347Z,99222.75
2023-01-19T08:33:25.421Z,99228.36
2023-01-19T08:35:53.834Z,99229.73
2023-01-19T08:38:21.032Z,99229.53
2023-01-19T08:40:49.215Z,99236.73
2023-01-19T08:43:17.661Z,99234.63
2023-01-19T08:45:52.262Z,99237.94
2023-01-19T08:48:22.542Z,99245.14
2023-01-19T08:50:51.539Z,99248.45
2023-01-19T08:53:21.184Z,99254.17
2023-01-19T08:55:48.362Z,99255.39
2023-01-19T08:58:15.694Z,99248.84
2023-01-19T09:00:42.819Z,99251.16
2023-01-19T09:03:13.874Z,99253.55
2023-01-19T09:05:41.117Z,99249.06
2023-01-19T09:08:11.227Z,99247.65
2023-01-19T09:10:39.742Z,99250.39
2023-01-19T09:13:10.971Z,99250.58
2023-01-19T09:15:39.993Z,99249.75
2023-01-19T09:18:14.146Z,99255.79
2023-01-19T09:20:45.299Z,99255.90
2023-01-19T09:23:14.640Z,99254.83
2023-01-19T09:25:44.072Z,99258.60
2023-01-19T09:28:14.709Z,99260.55
2023-01-19T09:30:43.458Z,99260.98
2023-01-19T09:33:13.202Z,99264.09
2023-01-19T09:35:41.939Z,99266.66
2023-01-19T09:38:10.696Z,99271.94
2023-01-19T09:40:43.236Z,99269.78
2023-01-19T09:43:13.051Z,99262.77
2023-01-19T09:45:48.769Z,99259.63
2023-01-19T09:48:51.944Z,99260.31
2023-01-19T09:51:24.192Z,99254.93
2023-01-19T09:53:55.781Z,99258.75
2023-01-19T09:56:24.067Z,99260.80
2023-01-19T09:58:52.391Z,99261.46
2023-01-19T10:01:38.504Z,99262.29
2023-01-19T10:04:21.384Z,99262.41
2023-01-19T10:06:49.764Z,99262.75
2023-01-19T10:09:35.306Z,99261.48
2023-01-19T10:12:12.944Z,99262.56
2023-01-19T10:14:51.026Z,99262.08
2023-01-19T10:17:40.243Z,99262.45
2023-01-19T10:20:18.075Z,99265.23
2023-01-19T10:22:49.053Z,99261.59
2023-01-19T10:25:23.874Z,99261.19
2023-01-19T10:27:51.879Z,99260.80
2023-01-19T10:30:25.860Z,99263.72
2023-01-19T10:32:53.564Z,99265.23
2023-01-19T10:35:27.160Z,99261.59
2023-01-19T10:37:58.566Z,99256.77
2023-01-19T10:40:33.460Z,99254.53
2023-01-19T10:43:01.221Z,99250.20
2023-01-19T10:45:31.636Z,99248.48
2023-01-19T10:48:06.655Z,99248.04
2023-01-19T10:50:37.364Z,99246.30
2023-01-19T10:53:06.548Z,99245.90
2023-01-19T10:55:38.864Z,99242.48
2023-01-19T10:58:30.205Z,99237.32
2023-01-19T11:01:14.077Z,99236.54
2023-01-19T11:03:41.390Z,99238.07
2023-01-19T11:06:15.603Z,99245.85
2023-01-19T11:08:44.612Z,99245.02
2023-01-19T11:11:13.415Z,99241.52
2023-01-19T11:13:42.345Z,99238.56
2023-01-19T11:16:29.426Z,99240.77
2023-01-19T11:18:57.993Z,99243.77
2023-01-19T11:21:28.158Z,99245.64
2023-01-19T11:23:58.586Z,99248.85
2023-01-19T11:26:43.354Z,99251.81
2023-01-19T11:29:19.330Z,99249.27
2023-01-19T11:31:46.799Z,99253.90
2023-01-19T11:34:31.420Z,99254.29
2023-01-19T11:37:04.009Z,99249.94
2023-01-19T11:39:45.058Z,99248.96
2023-01-19T11:42:13.582Z,99243.08
2023-01-19T11:44:48.132Z,99236.10
2023-01-19T11:47:27.367Z,99223.92
2023-01-19T11:49:57.381Z,99226.77
2023-01-19T11:52:32.403Z,99225.96
2023-01-19T11:55:22.563Z,99227.80
2023-01-19T11:57:54.711Z,99225.66
2023-01-19T12:00:24.848Z,99219.93
2023-01-19T12:02:59.619Z,99227.97
2023-01-19T12:05:32.435Z,99225.16
2023-01-19T12:08:05.456Z,99229.19
2023-01-19T12:10:38.538Z,99229.41
2023-01-19T12:13:05.650Z,99233.84
2023-01-19T12:15:43.181Z,99233.92
2023-01-19T12:18:21.186Z,99229.71
2023-01-19T12:20:52.154Z,99227.27
2023-01-19T12:23:44.660Z,99229.61
2023-01-19T12:26:21.987Z,99233.88
2023-01-19T12:28:52.341Z,99231.93
2023-01-19T12:31:22.780Z,99232.93
2023-01-19T12:33:50.838Z,99231.12
2023-01-19T12:36:30.378Z,99229.45
2023-01-19T12:39:05.708Z,99238.05
2023-01-19T12:41:37.133Z,99240.81
2023-01-19T12:44:10.505Z,99236.17
2023-01-19T12:46:53.132Z,99238.08
2023-01-19T12:49:31.497Z,99237.95
2023-01-19T12:52:14.281Z,99233.70
2023-01-19T12:54:49.869Z,99231.90
2023-01-19T12:57:33.642Z,99230.30
2023-01-19T13:00:06.052Z,99227.98
2023-01-19T13:02:44.982Z,99221.77
2023-01-19T13:05:32.512Z,99217.34
2023-01-19T13:08:03.279Z,99217.91
2023-01-19T13:11:10.847Z,99218.44
2023-01-19T13:13:46.736Z,99220.44
2023-01-19T13:16:20.347Z,99215.98
2023-01-19T13:19:07.323Z,99213.33
2023-01-19T13:21:44.782Z,99216.47
2023-01-19T13:24:15.707Z,99222.66
2023-01-19T13:26:55.205Z,99219.14
2023-01-19T13:29:30.347Z,99219.86
2023-01-19T13:32:03.553Z,99220.39
2023-01-19T13:34:42.850Z,99218.77
2023-01-19T13:37:18.965Z,99222.63
2023-01-19T13:39:50.538Z,99222.19
2023-01-19T13:42:30.446Z,99223.01
2023-01-19T13:45:05.882Z,99225.64
2023-01-19T13:47:48.598Z,99230.85
2023-01-19T13:50:25.299Z,99230.84
2023-01-19T13:52:54.690Z,99229.02
2023-01-19T13:55:23.596Z,99232.36
2023-01-19T13:57:51.984Z,99230.65
2023-01-19T14:00:21.205Z,99233.28
2023-01-19T14:02:57.242Z,99237.48
2023-01-19T14:05:26.538Z,99240.73
2023-01-19T14:08:21.391Z,99242.66
2023-01-19T14:10:54.743Z,99246.25
2023-01-19T14:13:23.008Z,99246.60
2023-01-19T14:15:54.021Z,99247.14
2023-01-19T14:18:24.371Z,99249.16
2023-01-19T14:20:58.836Z,99252.30
2023-01-19T14:24:06.801Z,99251.59
2023-01-19T14:26:51.411Z,99251.55
2023-01-19T14:29:32.786Z,99249.67
2023-01-19T14:32:14.434Z,99254.48
2023-01-19T14:35:06.057Z,99255.83
2023-01-19T14:37:38.208Z,99261.82
2023-01-19T14:40:10.741Z,99268.94
2023-01-19T14:42:49.957Z,99268.25
2023-01-19T14:45:22.859Z,99273.29
2023-01-19T14:48:02.339Z,99276.00
2023-01-19T14:50:33.943Z,99278.72
2023-01-19T14:53:04.811Z,99277.20
2023-01-19T14:55:54.501Z,99279.11
2023-01-19T14:58:24.581Z,99277.96
2023-01-19T15:00:55.865Z,99276.89
2023-01-19T15:03:32.014Z,99274.15
2023-01-19T15:06:15.816Z,99272.84
2023-01-19T15:08:43.930Z,99275.55
2023-01-19T15:11:32.862Z,99275.80
2023-01-19T15:14:01.122Z,99275.64
2023-01-19T15:16:31.695Z,99280.06
2023-01-19T15:18:58.974Z,99283.64
2023-01-19T15:21:29.094Z,99281.75
2023-01-19T15:23:58.414Z,99286.44
2023-01-19T15:26:27.388Z,99287.17
2023-01-19T15:28:56.308Z,99285.75
2023-01-19T15:31:25.707Z,99290.38
2023-01-19T15:33:52.907Z,99294.30
2023-01-19T15:36:21.956Z,99298.23
2023-01-19T15:38:51.268Z,99294.10
2023-01-19T15:41:26.166Z,99294.98
2023-01-19T15:43:53.415Z,99297.48
2023-01-19T15:46:21.521Z,99304.73
2023-01-19T15:48:52.866Z,99303.40
2023-01-19T15:51:22.178Z,99306.11
2023-01-19T15:53:50.019Z,99303.64
2023-01-19T15:56:23.584Z,99301.13
2023-01-19T15:58:51.456Z,99303.65
2023-01-19T16:01:21.592Z,99302.77
2023-01-19T16:03:49.798Z,99304.71
2023-01-19T16:06:18.052Z,99309.02
2023-01-19T16:08:45.663Z,99308.30
2023-01-19T16:11:15.477Z,99314.13
2023-01-19T16:13:46.671Z,99314.67
2023-01-19T16:16:19.575Z,99316.73
2023-01-19T16:18:46.806Z,99314.70
2023-01-19T16:21:14.136Z,99319.10
2023-01-19T16:23:41.315Z,99323.29
2023-01-19T16:26:31.068Z,99327.27
2023-01-19T16:29:08.020Z,99327.15
2023-01-19T16:31:36.612Z,99330.24
2023-01-19T16:34:03.993Z,99329.73
2023-01-19T16:36:33.558Z,99332.95
2023-01-19T16:39:03.307Z,99329.98
2023-01-19T16:41:30.654Z,99331.34
2023-01-19T16:43:58.536Z,99329.83
2023-01-19T16:46:28.652Z,99332.48
2023-01-19T16:49:00.694Z,99335.51
2023-01-19T16:51:27.871Z,99332.55
2023-01-19T16:53:55.025Z,99330.86
2023-01-19T16:56:22.425Z,99330.05
2023-01-19T16:58:54.299Z,99332.52
2023-01-19T17:01:22.250Z,99330.87
2023-01-19T17:03:49.970Z,99331.59
2023-01-19T17:06:20.214Z,99332.90
2023-01-19T17:08:47.704Z,99335.86
2023-01-19T17:11:23.285Z,99336.36
2023-01-19T17:13:54.147Z,99335.95
2023-01-19T17:16:22.386Z,99336.34
2023-01-19T17:18:49.999Z,99335.33
2023-01-19T17:21:17.997Z,99333.45
2023-01-19T17:23:47.349Z,99331.39
2023-01-19T17:26:16.092Z,99330.84
2023-01-19T17:28:43.828Z,99326.71
2023-01-19T17:31:17.294Z,99327.42
2023-01-19T17:33:46.765Z,99325.52
2023-01-19T17:36:17.084Z,99324.85
2023-01-19T17:38:44.212Z,99326.55
2023-01-19T17:41:24.180Z,99327.34
2023-01-19T17:43:52.272Z,99330.63
2023-01-19T17:46:21.300Z,99332.80
2023-01-19T17:49:00.153Z,99333.79
2023-01-19T17:51:28.734Z,99334.80
2023-01-19T17:53:56.687Z,99332.57
2023-01-19T17:56:29.787Z,99331.17
2023-01-19T17:58:58.304Z,99335.78
2023-01-19T18:01:28.620Z,99340.92
2023-01-19T18:03:57.132Z,99340.48
2023-01-19T18:06:24.638Z,99337.65
2023-01-19T18:08:52.666Z,99339.02
2023-01-19T18:11:20.858Z,99338.63
2023-01-19T18:13:49.957Z,99338.27
2023-01-19T18:16:21.558Z,99334.21
2023-01-19T18:18:49.939Z,99337.69
2023-01-19T18:21:17.570Z,99336.20
2023-01-19T18:23:45.946Z,99335.20
2023-01-19T18:26:16.485Z,99338.16
2023-01-19T18:28:43.818Z,99337.71
2023-01-19T18:31:13.398Z,99336.45
2023-01-19T18:33:41.183Z,99336.91
2023-01-19T18:36:09.567Z,99336.67
2023-01-19T18:38:38.371Z,99340.27
2023-01-19T18:41:06.791Z,99337.55
2023-01-19T18:43:34.268Z,99335.75
2023-01-19T18:46:01.519Z,99337.47
2023-01-19T18:48:28.965Z,99335.80
2023-01-19T18:50:56.723Z,99329.20
2023-01-19T18:53:24.165Z,99331.44
2023-01-19T18:56:04.387Z,99327.18
2023-01-19T18:58:33.045Z,99329.03
2023-01-19T19:01:01.429Z,99329.50
2023-01-19T19:03:29.284Z,99337.23
2023-01-19T19:05:56.757Z,99339.89
2023-01-19T19:08:23.980Z,99342.74
2023-01-19T19:10:51.132Z,99341.44
2023-01-19T19:13:20.686Z,99343.24
2023-01-19T19:15:47.862Z,99342.85
2023-01-19T19:18:16.372Z,99343.42
2023-01-19T19:20:43.953Z,99347.31
2023-01-19T19:23:11.803Z,99345.27
2023-01-19T19:25:39.184Z,99347.23
2023-01-19T19:28:06.729Z,99344.66
2023-01-19T19:30:35.783Z,99343.79
2023-01-19T19:33:03.009Z,99343.08
2023-01-19T19:35:30.212Z,99344.33
2023-01-19T19:37:57.915Z,99348.73
2023-01-19T19:40:27.121Z,99348.16
2023-01-19T19:42:56.432Z,99344.08
2023-01-19T19:45:25.544Z,99347.96
2023-01-19T19:47:52.829Z,99345.79
2023-01-19T19:50:20.002Z,99347.38
2023-01-19T19:52:47.230Z,99344.86
2023-01-19T19:55:14.570Z,99344.86
2023-01-19T19:57:41.705Z,99347.41
2023-01-19T20:00:09.600Z,99347.29
2023-01-19T20:02:37.303Z,99344.77
2023-01-19T20:05:05.281Z,99347.50
2023-01-19T20:07:32.958Z,99343.41
2023-01-19T20:10:00.189Z,99343.86
2023-01-19T20:12:27.585Z,99344.02
2023-01-19T20:14:54.661Z,99345.47
2023-01-19T20:17:23.291Z,99342.55
2023-01-19T20:19:50.491Z,99344.57
2023-01-19T20:22:17.724Z,99345.58
2023-01-19T20:24:45.060Z,99347.60
2023-01-19T20:27:12.198Z,99351.80
2023-01-19T20:29:39.463Z,99359.17
2023-01-19T20:32:06.676Z,99362.63
2023-01-19T20:34:35.735Z,99363.66
2023-01-19T20:37:04.765Z,99360.23
2023-01-19T20:39:34.788Z,99361.28
2023-01-19T20:42:02.694Z,99366.86
2023-01-19T20:44:30.410Z,99371.74
2023-01-19T20:46:57.628Z,99376.40
2023-01-19T20:49:25.116Z,99377.79
2023-01-19T20:51:52.369Z,99384.17
2023-01-19T20:54:22.416Z,99385.89
2023-01-19T20:56:49.623Z,99386.64
2023-01-19T20:59:17.139Z,99385.70
2023-01-19T21:01:45.242Z,99392.30
2023-01-19T21:04:12.851Z,99390.30
2023-01-19T21:06:41.021Z,99396.89
2023-01-19T21:09:10.146Z,99398.33
2023-01-19T21:11:38.568Z,99395.27
2023-01-19T21:14:06.660Z,99399.23
2023-01-19T21:16:35.664Z,99402.45
2023-01-19T21:19:04.160Z,99407.34
2023-01-19T21:21:32.057Z,99408.55
2023-01-19T21:24:04.074Z,99410.15
2023-01-19T21:26:31.689Z,99409.01
2023-01-19T21:29:00.505Z,99413.47
2023-01-19T21:31:28.602Z,99414.56
2023-01-19T21:33:59.218Z,99411.97
2023-01-19T21:36:27.032Z,99413.49
2023-01-19T21:39:00.371Z,99411.71
2023-01-19T21:41:30.034Z,99414.77
2023-01-19T21:43:58.652Z,99416.73
2023-01-19T21:46:29.368Z,99417.77
2023-01-19T21:49:02.180Z,99418.52
2023-01-19T21:51:33.613Z,99416.27
2023-01-19T21:54:03.170Z,99417.18
2023-01-19T21:56:31.246Z,99420.20
2023-01-19T21:59:03.698Z,99426.55
2023-01-19T22:01:32.463Z,99430.99
2023-01-19T22:04:00.020Z,99431.41
2023-01-19T22:06:28.043Z,99434.52
2023-01-19T22:08:57.972Z,99434.59
2023-01-19T22:11:25.176Z,99437.09
2023-01-19T22:13:53.041Z,99436.59
2023-01-19T22:16:21.638Z,99436.70
2023-01-19T22:18:54.218Z,99439.30
2023-01-19T22:21:23.976Z,99440.58
2023-01-19T22:23:53.552Z,99439.90
2023-01-19T22:26:21.263Z,99441.42
2023-01-19T22:28:49.027Z,99440.88
2023-01-19T22:31:18.272Z,99444.45
2023-01-19T22:33:46.103Z,99449.73
2023-01-19T22:36:26.430Z,99449.94
2023-01-19T22:38:56.091Z,99449.27
2023-01-19T22:41:30.443Z,99452.41
2023-01-19T22:43:59.964Z,99460.31
2023-01-19T22:46:30.104Z,99464.17
2023-01-19T22:48:57.748Z,99463.43
2023-01-19T22:51:26.474Z,99464.06
2023-01-19T22:53:53.803Z,99470.09
2023-01-19T22:56:29.750Z,99472.98
2023-01-19T22:58:57.412Z,99475.66
2023-01-19T23:01:27.992Z,99475.91
2023-01-19T23:03:56.046Z,99478.69
2023-01-19T23:06:26.031Z,99482.77
2023-01-19T23:08:56.267Z,99485.70
2023-01-19T23:11:26.243Z,99488.05
2023-01-19T23:13:53.433Z,99491.33
2023-01-19T23:16:21.927Z,99492.56
2023-01-19T23:18:53.479Z,99495.84
2023-01-19T23:21:22.703Z,99498.13
2023-01-19T23:23:53.437Z,99498.52
2023-01-19T23:26:21.464Z,99503.77
2023-01-19T23:28:52.861Z,99509.38
2023-01-19T23:31:23.961Z,99508.20
2023-01-19T23:33:56.371Z,99509.02
2023-01-19T23:36:25.579Z,99507.46
2023-01-19T23:38:55.100Z,99513.61
2023-01-19T23:41:23.513Z,99517.98
2023-01-19T23:43:50.969Z,99516.90
2023-01-19T23:46:19.601Z,99519.23
2023-01-19T23:48:47.248Z,99520.79
2023-01-19T23:51:17.466Z,99522.88
2023-01-19T23:53:45.149Z,99523.90
2023-01-19T23:56:15.080Z,99524.75
2023-01-19T23:58:42.243Z,99531.34
